createdAt,value
2019-03-16T00:02:09.555Z,98948.38
2019-03-16T00:04:40.292Z,98950.83
2019-03-16T00:07:12.102Z,98925.34
2019-03-16T00:09:46.229Z,98933.37
2019-03-16T00:12:17.407Z,98925.05
2019-03-16T00:14:48.735Z,98946.72
2019-03-16T00:17:23.112Z,98934.19
2019-03-16T00:19:52.257Z,98954.09
2019-03-16T00:22:23.601Z,98947.17
2019-03-16T00:24:54.623Z,98954.42
2019-03-16T00:27:26.085Z,98968.56
2019-03-16T00:29:57.379Z,98969.86
2019-03-16T00:32:28.580Z,98969.51
2019-03-16T00:34:59.943Z,98978.50
2019-03-16T00:37:30.864Z,98991.84
2019-03-16T00:40:07.123Z,98973.26
2019-03-16T00:42:37.965Z,98969.76
2019-03-16T00:45:10.686Z,98983.52
2019-03-16T00:47:41.809Z,98973.93
2019-03-16T00:50:14.104Z,98964.48
2019-03-16T00:52:45.164Z,98978.44
2019-03-16T00:55:16.153Z,98980.96
2019-03-16T00:57:46.881Z,98986.14
2019-03-16T01:00:18.508Z,98977.04
2019-03-16T01:02:49.558Z,98982.12
2019-03-16T01:05:20.172Z,98979.84
2019-03-16T01:07:51.432Z,98996.71
2019-03-16T01:10:22.328Z,98991.84
2019-03-16T01:12:53.161Z,98999.97
2019-03-16T01:15:24.082Z,99011.23
2019-03-16T01:17:55.226Z,98995.17
2019-03-16T01:20:26.077Z,99012.81
2019-03-16T01:22:57.093Z,99012.77
2019-03-16T01:25:28.330Z,99016.63
2019-03-16T01:27:59.172Z,99016.63
2019-03-16T01:30:30.547Z,99019.59
2019-03-16T01:33:01.837Z,99009.23
2019-03-16T01:35:33.389Z,99026.91
2019-03-16T01:38:05.095Z,99035.13
2019-03-16T01:40:35.877Z,99042.91
2019-03-16T01:43:06.774Z,99043.32
2019-03-16T01:45:37.687Z,99055.47
2019-03-16T01:48:08.530Z,99062.28
2019-03-16T01:50:40.287Z,99059.34
2019-03-16T01:53:11.336Z,99067.05
2019-03-16T01:55:42.440Z,99063.13
2019-03-16T01:58:13.882Z,99080.72
2019-03-16T02:00:45.041Z,99077.75
2019-03-16T02:03:15.984Z,99078.59
2019-03-16T02:05:46.647Z,99089.36
2019-03-16T02:08:17.942Z,99091.53
2019-03-16T02:10:48.497Z,99100.48
2019-03-16T02:13:19.574Z,99103.91
2019-03-16T02:15:51.075Z,99119.44
2019-03-16T02:18:21.990Z,99119.37
2019-03-16T02:20:53.415Z,99131.93
2019-03-16T02:23:24.811Z,99125.27
2019-03-16T02:25:55.972Z,99139.16
2019-03-16T02:28:27.295Z,99141.94
2019-03-16T02:30:58.007Z,99141.52
2019-03-16T02:33:29.182Z,99138.48
2019-03-16T02:36:00.305Z,99155.95
2019-03-16T02:38:32.823Z,99153.70
2019-03-16T02:41:03.548Z,99163.17
2019-03-16T02:43:34.772Z,99180.88
2019-03-16T02:46:05.463Z,99178.59
2019-03-16T02:48:36.148Z,99179.00
2019-03-16T02:51:08.629Z,99161.30
2019-03-16T02:53:39.539Z,99180.80
2019-03-16T02:56:10.636Z,99175.50
2019-03-16T02:58:41.501Z,99181.84
2019-03-16T03:01:12.516Z,99171.30
2019-03-16T03:03:43.342Z,99191.55
2019-03-16T03:06:14.100Z,99205.73
2019-03-16T03:08:45.290Z,99212.12
2019-03-16T03:11:16.032Z,99217.17
2019-03-16T03:13:47.092Z,99219.30
2019-03-16T03:16:18.354Z,99227.90
2019-03-16T03:18:50.115Z,99223.40
2019-03-16T03:21:21.249Z,99243.30
2019-03-16T03:23:51.966Z,99250.98
2019-03-16T03:26:22.934Z,99257.98
2019-03-16T03:28:53.652Z,99246.77
2019-03-16T03:31:24.347Z,99261.53
2019-03-16T03:34:00.812Z,99264.00
2019-03-16T03:36:27.562Z,99266.58
2019-03-16T03:38:58.714Z,99285.91
2019-03-16T03:41:30.707Z,99265.58
2019-03-16T03:44:01.928Z,99275.09
2019-03-16T03:46:32.804Z,99283.73
2019-03-16T03:49:04.927Z,99283.41
2019-03-16T03:51:36.222Z,99290.25
2019-03-16T03:54:07.154Z,99292.45
2019-03-16T03:56:38.131Z,99302.80
2019-03-16T03:59:09.252Z,99303.60
2019-03-16T04:01:40.638Z,99316.54
2019-03-16T04:04:15.843Z,99304.48
2019-03-16T04:06:44.073Z,99318.33
2019-03-16T04:09:15.064Z,99311.78
2019-03-16T04:11:46.264Z,99322.13
2019-03-16T04:14:17.667Z,99321.20
2019-03-16T04:16:48.383Z,99338.41
2019-03-16T04:19:19.338Z,99329.17
2019-03-16T04:21:49.926Z,99334.01
2019-03-16T04:24:21.064Z,99338.77
2019-03-16T04:26:51.995Z,99344.69
2019-03-16T04:29:23.256Z,99356.47
2019-03-16T04:31:54.260Z,99362.05
2019-03-16T04:34:29.671Z,99359.34
2019-03-16T04:36:57.601Z,99359.34
2019-03-16T04:39:28.655Z,99375.73
2019-03-16T04:41:59.950Z,99379.61
2019-03-16T04:44:30.886Z,99387.70
2019-03-16T04:47:01.564Z,99402.02
2019-03-16T04:49:32.704Z,99396.84
2019-03-16T04:52:03.655Z,99416.71
2019-03-16T04:54:34.775Z,99405.02
2019-03-16T04:57:05.559Z,99408.90
2019-03-16T04:59:36.598Z,99415.28
2019-03-16T05:02:07.456Z,99429.37
2019-03-16T05:04:42.747Z,99435.52
2019-03-16T05:07:10.771Z,99415.70
2019-03-16T05:09:42.363Z,99439.73
2019-03-16T05:12:13.335Z,99445.40
2019-03-16T05:14:44.646Z,99452.19
2019-03-16T05:17:15.948Z,99446.14
2019-03-16T05:19:47.082Z,99451.23
2019-03-16T05:22:18.226Z,99459.77
2019-03-16T05:24:49.160Z,99476.58
2019-03-16T05:27:20.576Z,99484.61
2019-03-16T05:29:51.599Z,99483.23
2019-03-16T05:32:22.484Z,99490.11
2019-03-16T05:34:56.809Z,99497.78
2019-03-16T05:37:26.141Z,99506.78
2019-03-16T05:39:57.477Z,99505.08
2019-03-16T05:42:30.304Z,99504.33
2019-03-16T05:45:01.223Z,99525.28
2019-03-16T05:47:32.447Z,99517.58
2019-03-16T05:50:06.960Z,99517.70
2019-03-16T05:52:37.926Z,99534.61
2019-03-16T05:55:08.842Z,99547.17
2019-03-16T05:57:39.767Z,99538.13
2019-03-16T06:00:13.224Z,99540.19
2019-03-16T06:02:44.264Z,99538.89
2019-03-16T06:05:15.236Z,99540.23
2019-03-16T06:07:47.115Z,99541.41
2019-03-16T06:10:18.558Z,99555.09
2019-03-16T06:12:49.585Z,99561.38
2019-03-16T06:15:20.706Z,99563.37
2019-03-16T06:17:51.687Z,99570.22
2019-03-16T06:20:22.954Z,99579.50
2019-03-16T06:22:54.096Z,99575.77
2019-03-16T06:25:25.088Z,99582.23
2019-03-16T06:27:56.046Z,99587.31
2019-03-16T06:30:28.214Z,99599.84
2019-03-16T06:32:59.339Z,99604.22
2019-03-16T06:35:30.273Z,99600.34
2019-03-16T06:38:01.339Z,99616.15
2019-03-16T06:40:32.480Z,99594.16
2019-03-16T06:43:03.541Z,99604.29
2019-03-16T06:45:35.082Z,99615.25
2019-03-16T06:48:06.550Z,99623.66
2019-03-16T06:50:37.622Z,99628.29
2019-03-16T06:53:08.959Z,99644.08
2019-03-16T06:55:40.289Z,99645.23
2019-03-16T06:58:11.356Z,99654.52
2019-03-16T07:00:42.227Z,99655.22
2019-03-16T07:03:13.389Z,99692.68
2019-03-16T07:05:44.077Z,99673.27
2019-03-16T07:08:15.191Z,99680.97
2019-03-16T07:10:46.154Z,99687.83
2019-03-16T07:13:17.721Z,99685.05
2019-03-16T07:15:50.002Z,99689.21
2019-03-16T07:18:20.877Z,99698.96
2019-03-16T07:20:51.583Z,99695.53
2019-03-16T07:23:24.132Z,99715.97
2019-03-16T07:25:58.533Z,99716.88
2019-03-16T07:28:29.693Z,99715.86
2019-03-16T07:31:07.186Z,99728.34
2019-03-16T07:33:41.250Z,99718.25
2019-03-16T07:36:12.529Z,99738.27
2019-03-16T07:38:44.553Z,99738.19
2019-03-16T07:41:17.221Z,99741.47
2019-03-16T07:43:48.450Z,99747.63
2019-03-16T07:46:19.852Z,99757.89
2019-03-16T07:48:50.841Z,99761.33
2019-03-16T07:51:25.078Z,99776.18
2019-03-16T07:53:58.260Z,99767.58
2019-03-16T07:56:29.507Z,99771.55
2019-03-16T07:59:00.782Z,99774.42
2019-03-16T08:01:31.361Z,99775.77
2019-03-16T08:04:02.583Z,99788.82
2019-03-16T08:06:33.864Z,99786.27
2019-03-16T08:09:06.069Z,99792.55
2019-03-16T08:11:37.519Z,99802.03
2019-03-16T08:14:08.737Z,99802.56
2019-03-16T08:16:40.013Z,99804.06
2019-03-16T08:19:12.375Z,99796.61
2019-03-16T08:21:43.382Z,99801.88
2019-03-16T08:24:14.083Z,99804.33
2019-03-16T08:26:45.003Z,99808.77
2019-03-16T08:29:17.521Z,99799.88
2019-03-16T08:31:49.372Z,99795.82
2019-03-16T08:34:21.130Z,99798.76
2019-03-16T08:36:52.089Z,99793.64
2019-03-16T08:39:23.725Z,99825.32
2019-03-16T08:41:54.773Z,99816.26
2019-03-16T08:44:26.878Z,99824.36
2019-03-16T08:46:58.036Z,99832.01
2019-03-16T08:49:29.004Z,99835.63
2019-03-16T08:51:59.902Z,99835.34
2019-03-16T08:54:31.059Z,99838.89
2019-03-16T08:57:02.763Z,99848.02
2019-03-16T08:59:33.611Z,99856.83
2019-03-16T09:02:04.495Z,99845.58
2019-03-16T09:04:35.778Z,99864.89
2019-03-16T09:07:07.179Z,99862.42
2019-03-16T09:09:38.461Z,99864.00
2019-03-16T09:12:10.012Z,99873.22
2019-03-16T09:14:40.911Z,99881.84
2019-03-16T09:17:11.778Z,99872.48
2019-03-16T09:19:42.533Z,99858.95
2019-03-16T09:22:13.036Z,99870.63
2019-03-16T09:24:43.721Z,99882.72
2019-03-16T09:27:14.203Z,99883.91
2019-03-16T09:29:44.822Z,99875.64
2019-03-16T09:32:15.572Z,99881.78
2019-03-16T09:34:46.252Z,99882.06
2019-03-16T09:37:16.671Z,99894.73
2019-03-16T09:39:47.371Z,99900.98
2019-03-16T09:42:17.994Z,99895.37
2019-03-16T09:44:49.548Z,99895.98
2019-03-16T09:47:20.067Z,99900.98
2019-03-16T09:49:50.860Z,99904.46
2019-03-16T09:52:21.572Z,99910.20
2019-03-16T09:54:52.467Z,99916.42
2019-03-16T09:57:23.082Z,99931.66
2019-03-16T09:59:53.788Z,99925.71
2019-03-16T10:02:24.212Z,99922.09
2019-03-16T10:04:54.883Z,99933.17
2019-03-16T10:07:25.411Z,99932.47
2019-03-16T10:09:55.948Z,99909.45
2019-03-16T10:12:26.692Z,99926.34
2019-03-16T10:14:57.199Z,99936.78
2019-03-16T10:17:34.882Z,99939.57
2019-03-16T10:20:16.554Z,99926.78
2019-03-16T10:22:47.892Z,99931.95
2019-03-16T10:25:19.562Z,99937.12
2019-03-16T10:27:50.772Z,99933.55
2019-03-16T10:30:22.670Z,99933.95
2019-03-16T10:32:54.203Z,99935.62
2019-03-16T10:35:25.261Z,99955.33
2019-03-16T10:37:56.527Z,99955.41
2019-03-16T10:40:27.597Z,99949.47
2019-03-16T10:42:59.666Z,99945.52
2019-03-16T10:45:30.449Z,99942.94
2019-03-16T10:48:01.567Z,99949.98
2019-03-16T10:50:32.939Z,99946.52
2019-03-16T10:53:04.043Z,99951.42
2019-03-16T10:55:35.228Z,99962.42
2019-03-16T10:58:05.872Z,99946.83
2019-03-16T11:00:37.033Z,99948.13
2019-03-16T11:03:08.376Z,99947.59
2019-03-16T11:05:39.625Z,99945.23
2019-03-16T11:08:10.356Z,99949.17
2019-03-16T11:10:41.530Z,99946.08
2019-03-16T11:13:13.395Z,99948.52
2019-03-16T11:15:44.733Z,99953.41
2019-03-16T11:18:16.061Z,99966.50
2019-03-16T11:20:47.235Z,99963.95
2019-03-16T11:23:18.154Z,99982.58
2019-03-16T11:25:49.367Z,99984.73
2019-03-16T11:28:20.489Z,99977.16
2019-03-16T11:30:52.190Z,99978.59
2019-03-16T11:33:22.954Z,99979.52
2019-03-16T11:35:54.402Z,99991.22
2019-03-16T11:38:25.676Z,99982.28
2019-03-16T11:40:56.562Z,99983.59
2019-03-16T11:43:27.499Z,99974.56
2019-03-16T11:45:58.588Z,99978.38
2019-03-16T11:48:29.311Z,99977.58
2019-03-16T11:51:00.499Z,99974.14
2019-03-16T11:53:31.849Z,99965.21
2019-03-16T11:56:03.475Z,99966.34
2019-03-16T11:58:34.250Z,99962.27
2019-03-16T12:01:05.219Z,99955.63
2019-03-16T12:03:36.594Z,99956.53
2019-03-16T12:09:44.239Z,99955.83
2019-03-16T12:12:15.149Z,99954.17
2019-03-16T12:14:48.965Z,99946.24
2019-03-16T12:17:20.336Z,99944.72
2019-03-16T12:19:51.215Z,99943.76
2019-03-16T12:22:23.145Z,99953.26
2019-03-16T12:24:54.206Z,99952.39
2019-03-16T12:27:25.414Z,99954.67
2019-03-16T12:29:56.600Z,99952.88
2019-03-16T12:32:28.280Z,99954.52
2019-03-16T12:34:59.675Z,99953.37
2019-03-16T12:37:30.453Z,99951.76
2019-03-16T12:40:01.500Z,99945.11
2019-03-16T12:42:32.539Z,99954.28
2019-03-16T12:45:03.800Z,99948.08
2019-03-16T12:47:35.121Z,99948.00
2019-03-16T12:50:08.573Z,99945.06
2019-03-16T12:52:40.767Z,99938.07
2019-03-16T12:55:13.944Z,99954.57
2019-03-16T12:57:47.744Z,99953.05
2019-03-16T13:00:19.501Z,99955.37
2019-03-16T13:02:50.790Z,99959.59
2019-03-16T13:05:22.191Z,99940.86
2019-03-16T13:07:53.260Z,99945.26
2019-03-16T13:10:24.432Z,99937.34
2019-03-16T13:12:55.759Z,99929.22
2019-03-16T13:15:26.666Z,99937.88
2019-03-16T15:10:13.014Z,99937.89
2019-03-16T15:12:44.700Z,99938.23
2019-03-16T15:15:17.876Z,99938.97
2019-03-16T15:17:49.285Z,99935.06
2019-03-16T15:20:20.379Z,99929.62
2019-03-16T15:22:53.665Z,99941.67
2019-03-16T15:25:25.135Z,99940.14
2019-03-16T15:27:56.734Z,99940.62
2019-03-16T15:30:28.263Z,99945.77
2019-03-16T15:33:00.506Z,99939.87
2019-03-16T15:35:31.602Z,99943.98
2019-03-16T15:38:02.778Z,99939.80
2019-03-16T15:40:33.824Z,99943.77
2019-03-16T15:43:05.421Z,99941.47
2019-03-16T15:45:36.587Z,99949.19
2019-03-16T15:48:07.409Z,99948.90
2019-03-16T15:50:38.225Z,99957.41
2019-03-16T15:53:09.536Z,99961.36
2019-03-16T15:55:40.397Z,99967.52
2019-03-16T15:58:11.464Z,99974.14
2019-03-16T16:00:42.727Z,99963.48
2019-03-16T16:03:13.806Z,99967.70
2019-03-16T16:05:44.777Z,99970.32
2019-03-16T16:08:15.901Z,99965.71
2019-03-16T16:10:59.681Z,99970.58
2019-03-16T16:13:20.006Z,99964.43
2019-03-16T16:15:51.254Z,99973.39
2019-03-16T16:18:22.321Z,99966.91
2019-03-16T16:20:53.386Z,99969.08
2019-03-16T16:23:24.451Z,99975.02
2019-03-16T16:25:56.063Z,99979.18
2019-03-16T16:28:28.987Z,99977.05
2019-03-16T16:31:00.643Z,99986.75
2019-03-16T16:33:31.505Z,99986.33
2019-03-16T16:36:03.264Z,99992.11
2019-03-16T16:38:36.216Z,99992.84
2019-03-16T16:41:07.144Z,99999.73
2019-03-16T16:43:42.234Z,99991.66
2019-03-16T16:46:12.985Z,99999.06
2019-03-16T16:48:44.988Z,99994.12
2019-03-16T16:51:16.408Z,100002.06
2019-03-16T16:53:47.568Z,99996.47
2019-03-16T16:56:18.621Z,99999.64
2019-03-16T16:58:50.008Z,100005.26
2019-03-16T17:01:29.325Z,100002.45
2019-03-16T17:03:55.649Z,100011.22
2019-03-16T17:06:28.047Z,100009.30
2019-03-16T17:08:59.289Z,100010.18
2019-03-16T17:11:32.011Z,100010.19
2019-03-16T17:14:03.409Z,100010.95
2019-03-16T17:16:34.213Z,100014.88
2019-03-16T17:19:08.033Z,100017.47
2019-03-16T17:21:42.769Z,100019.17
2019-03-16T17:24:15.211Z,100021.60
2019-03-16T17:26:49.564Z,100021.30
2019-03-16T17:29:21.728Z,100027.43
2019-03-16T17:31:57.874Z,100022.41
2019-03-16T17:34:31.941Z,100028.89
2019-03-16T17:37:08.617Z,100025.19
2019-03-16T17:39:50.489Z,100026.22
2019-03-16T17:42:23.763Z,100019.20
2019-03-16T17:44:55.332Z,100029.80
2019-03-16T17:47:30.727Z,100025.03
2019-03-16T17:50:11.505Z,100022.22
2019-03-16T17:52:44.602Z,100022.05
2019-03-16T17:55:20.179Z,100021.23
2019-03-16T17:58:01.288Z,100022.05
2019-03-16T18:04:20.801Z,100010.64
2019-03-16T18:07:12.136Z,100014.69
2019-03-16T18:09:55.079Z,100006.77
2019-03-16T18:26:35.218Z,99991.78
2019-03-16T18:29:11.694Z,99987.67
2019-03-16T18:32:15.749Z,99983.16
2019-03-16T18:35:29.672Z,99983.31
2019-03-16T18:42:15.525Z,99979.44
2019-03-16T19:01:45.036Z,99974.41
2019-03-16T19:04:15.891Z,99974.98
2019-03-16T19:06:46.649Z,99971.75
2019-03-16T19:09:18.278Z,99972.89
2019-03-16T19:11:49.522Z,99971.83
2019-03-16T19:14:20.893Z,99967.47
2019-03-16T19:16:52.589Z,99968.42
2019-03-16T19:19:24.068Z,99960.50
2019-03-16T19:21:55.093Z,99958.33
2019-03-16T19:24:25.998Z,99961.70
2019-03-16T19:26:57.054Z,99947.63
2019-03-16T19:29:29.729Z,99939.86
2019-03-16T19:32:00.792Z,99939.64
2019-03-16T19:34:32.059Z,99931.31
2019-03-16T19:37:04.495Z,99929.55
2019-03-16T19:39:35.249Z,99926.14
2019-03-16T19:42:07.182Z,99924.84
2019-03-16T19:44:38.539Z,99928.82
2019-03-16T19:47:09.858Z,99920.55
2019-03-16T19:49:41.879Z,99917.02
2019-03-16T19:52:13.759Z,99914.11
2019-03-16T19:54:45.234Z,99920.33
2019-03-16T19:57:19.946Z,99918.22
2019-03-16T19:59:51.932Z,99915.56
2019-03-16T20:02:23.979Z,99916.77
2019-03-16T22:11:14.388Z,99868.59
2019-03-16T22:13:46.321Z,99864.03
2019-03-16T22:16:18.404Z,99865.27
2019-03-16T22:18:50.013Z,99872.42
2019-03-16T22:21:23.499Z,99872.32
2019-03-16T22:23:55.226Z,99873.35
2019-03-16T22:26:26.131Z,99869.41
2019-03-16T22:28:57.769Z,99867.03
2019-03-16T22:31:29.239Z,99865.47
2019-03-16T22:34:00.881Z,99862.77
2019-03-16T22:36:32.122Z,99864.63
2019-03-16T22:39:04.001Z,99857.33
2019-03-16T22:41:34.979Z,99854.56
2019-03-16T22:44:06.360Z,99852.03
2019-03-16T22:46:38.308Z,99853.89
2019-03-16T22:49:11.221Z,99854.03
2019-03-16T22:51:43.180Z,99859.77
2019-03-16T22:54:14.042Z,99860.66
2019-03-16T22:56:45.521Z,99856.30
2019-03-16T22:59:16.884Z,99854.33
2019-03-16T23:01:49.622Z,99840.69
2019-03-16T23:04:22.126Z,99848.70
2019-03-16T23:06:55.202Z,99853.88
2019-03-16T23:09:26.839Z,99856.59
2019-03-16T23:11:59.549Z,99849.92
2019-03-16T23:14:38.520Z,99848.83
2019-03-16T23:17:12.080Z,99847.06
2019-03-16T23:19:44.300Z,99843.05
2019-03-16T23:22:17.189Z,99839.30
2019-03-16T23:24:54.641Z,99840.74
2019-03-16T23:27:26.465Z,99842.59
2019-03-16T23:29:57.663Z,99848.24
2019-03-16T23:32:30.953Z,99844.91
2019-03-16T23:35:02.821Z,99846.73
2019-03-16T23:37:33.899Z,99846.95
2019-03-16T23:40:07.800Z,99844.50
2019-03-16T23:42:39.249Z,99854.13
2019-03-16T23:45:22.793Z,99837.66
2019-03-16T23:47:58.880Z,99835.16
2019-03-16T23:50:33.337Z,99825.06
2019-03-16T23:53:05.176Z,99831.31
2019-03-16T23:55:37.913Z,99819.73
2019-03-16T23:58:11.662Z,99817.61
